Time;durP1;ratioP1;P1;durP2;ratioP2;P2;SDS_P1;SDS_P2;PMS_P1;PMS_P2;Temp;Humidity;BMP_temperature;BMP_pressure;BME280_temperature;BME280_humidity;BME280_pressure;Samples;Min_cycle;Max_cycle;Signal;HPM_P1;HPM_P2
2022/03/13 00:00:54;;;;;;;15.18;11.18;;;;;;;6.99;40.71;96591.56;5093670;28;20479;-69
2022/03/13 00:03:22;;;;;;;16.92;11.35;;;;;;;6.99;40.68;96586.38;5111234;28;20396;-69
2022/03/13 00:05:51;;;;;;;14.88;11.25;;;;;;;6.65;41.53;96588.31;5095687;28;20853;-69
2022/03/13 00:08:23;;;;;;;17.45;11.45;;;;;;;6.65;41.82;96595.34;5111888;28;20844;-70
2022/03/13 00:10:56;;;;;;;15.85;11.15;;;;;;;6.50;42.31;96602.59;5111949;28;20400;-69
2022/03/13 00:13:24;;;;;;;16.15;11.50;;;;;;;6.27;42.57;96590.06;5111643;28;20491;-69
2022/03/13 00:15:51;;;;;;;19.00;11.57;;;;;;;6.22;43.29;96595.88;5112435;28;20414;-69
2022/03/13 00:18:17;;;;;;;17.02;11.55;;;;;;;6.10;43.05;96591.47;5111869;28;20430;-69
2022/03/13 00:20:43;;;;;;;14.98;10.80;;;;;;;6.09;43.02;96601.09;5111992;28;20414;-69
2022/03/13 00:23:08;;;;;;;17.40;11.30;;;;;;;6.03;42.95;96601.91;5111761;28;20388;-69
2022/03/13 00:25:34;;;;;;;14.80;10.38;;;;;;;5.95;42.99;96596.91;5111640;28;20420;-69
2022/03/13 00:27:59;;;;;;;15.73;10.73;;;;;;;5.98;42.83;96600.91;5111854;28;20389;-69
2022/03/13 00:30:25;;;;;;;16.48;11.00;;;;;;;5.85;42.81;96596.50;5111689;28;20742;-68
2022/03/13 00:32:51;;;;;;;15.15;11.15;;;;;;;5.90;43.59;96595.94;5111467;28;20391;-69
2022/03/13 00:35:16;;;;;;;16.17;10.80;;;;;;;5.73;43.90;96596.31;5111944;28;20392;-68
2022/03/13 00:37:42;;;;;;;15.40;11.03;;;;;;;5.69;43.69;96597.69;5111319;28;20858;-69
2022/03/13 00:40:08;;;;;;;14.88;10.93;;;;;;;5.75;43.59;96591.69;5111164;28;20409;-69
2022/03/13 00:42:34;;;;;;;17.00;11.15;;;;;;;5.65;43.95;96599.09;5112122;28;20431;-69
2022/03/13 00:45:00;;;;;;;16.93;11.07;;;;;;;5.65;43.85;96596.50;5111631;28;20440;-69
2022/03/13 00:47:25;;;;;;;15.83;11.37;;;;;;;5.80;43.02;96593.69;5111655;28;20878;-69
2022/03/13 00:49:51;;;;;;;16.27;11.38;;;;;;;5.62;43.46;96599.50;5111608;28;20384;-68
2022/03/13 00:52:17;;;;;;;14.27;10.55;;;;;;;5.59;43.80;96601.69;5111450;28;20449;-69
2022/03/13 00:54:43;;;;;;;15.43;10.07;;;;;;;5.47;43.62;96593.69;5111435;28;20541;-69
2022/03/13 00:57:08;;;;;;;15.43;10.15;;;;;;;5.44;43.45;96599.28;5114952;28;20396;-68
2022/03/13 00:59:34;;;;;;;17.20;10.50;;;;;;;5.64;43.08;96597.50;5115353;28;20404;-69
2022/03/13 01:01:59;;;;;;;14.90;10.40;;;;;;;5.71;42.25;96590.50;5115224;28;20402;-68
2022/03/13 01:04:25;;;;;;;13.85;9.88;;;;;;;5.77;40.97;96592.28;5097174;28;20792;-69
2022/03/13 01:06:51;;;;;;;13.00;9.35;;;;;;;5.66;40.86;96590.31;5115836;28;20391;-69
2022/03/13 01:09:17;;;;;;;12.50;9.00;;;;;;;5.54;40.97;96583.28;5115357;28;20479;-69
2022/03/13 01:11:42;;;;;;;13.95;9.43;;;;;;;5.55;41.24;96585.69;5115040;28;20384;-69
2022/03/13 01:14:08;;;;;;;12.73;8.97;;;;;;;5.47;41.43;96587.69;5114858;28;20908;-69
2022/03/13 01:16:36;;;;;;;12.40;8.83;;;;;;;5.36;41.27;96586.47;5115000;28;20467;-69
2022/03/13 01:19:03;;;;;;;11.60;8.70;;;;;;;5.19;41.78;96586.06;5115065;28;20875;-69
2022/03/13 01:21:30;;;;;;;13.52;8.70;;;;;;;5.20;41.79;96587.66;5114920;28;20407;-68
2022/03/13 01:23:55;;;;;;;11.10;8.30;;;;;;;4.95;42.54;96581.41;5114726;28;20408;-68
2022/03/13 01:26:24;;;;;;;12.47;8.83;;;;;;;4.99;42.78;96580.03;5114875;28;20389;-69
2022/03/13 01:28:53;;;;;;;13.00;8.80;;;;;;;4.98;42.08;96581.81;5115089;28;20391;-69
2022/03/13 01:31:25;;;;;;;13.93;8.80;;;;;;;5.06;42.60;96575.66;5115040;28;20384;-68
2022/03/13 01:33:50;;;;;;;12.70;8.88;;;;;;;4.96;42.18;96577.81;5115161;28;20736;-68
2022/03/13 01:36:16;;;;;;;13.05;8.32;;;;;;;4.99;42.04;96580.03;5114871;28;20380;-68
2022/03/13 01:38:41;;;;;;;11.97;8.60;;;;;;;5.00;41.96;96569.44;5096744;28;20392;-69
2022/03/13 01:41:07;;;;;;;14.57;9.00;;;;;;;5.09;41.40;96570.06;5114831;28;20377;-68
2022/03/13 01:43:33;;;;;;;12.83;9.20;;;;;;;4.95;41.49;96564.03;5114934;28;20376;-69
2022/03/13 01:45:59;;;;;;;12.47;8.43;;;;;;;5.13;41.21;96563.47;5114911;28;20375;-68
2022/03/13 01:48:26;;;;;;;13.23;8.65;;;;;;;4.99;41.65;96559.25;5115124;28;20376;-68
2022/03/13 01:50:52;;;;;;;14.13;9.00;;;;;;;5.05;41.46;96560.25;5114753;28;20380;-68
2022/03/13 01:53:20;;;;;;;11.90;8.85;;;;;;;5.08;41.46;96559.84;5114684;28;20403;-69
2022/03/13 01:55:46;;;;;;;10.87;8.63;;;;;;;5.00;40.88;96556.47;5114652;28;20436;-69
2022/03/13 01:58:12;;;;;;;10.98;8.43;;;;;;;4.83;41.79;96551.81;5114676;28;20384;-68
2022/03/13 02:00:37;;;;;;;11.70;8.67;;;;;;;4.74;41.78;96555.56;5114656;28;20373;-68
2022/03/13 02:03:03;;;;;;;10.13;8.00;;;;;;;4.83;41.39;96559.63;5114316;28;20372;-68
2022/03/13 02:05:34;;;;;;;12.20;8.03;;;;;;;4.82;40.92;96563.19;5114296;28;20769;-68
2022/03/13 02:08:04;;;;;;;10.73;7.85;;;;;;;5.07;40.97;96555.69;5114136;28;20436;-69
2022/03/13 02:10:30;;;;;;;14.90;9.53;;;;;;;4.83;41.65;96557.03;5114372;28;20449;-68
2022/03/13 02:12:56;;;;;;;14.43;8.87;;;;;;;4.88;41.94;96558.03;5114219;28;20392;-68
2022/03/13 02:15:22;;;;;;;14.10;9.27;;;;;;;4.60;42.90;96558.16;5114337;28;20446;-68
2022/03/13 02:17:47;;;;;;;12.63;9.33;;;;;;;4.84;43.02;96556.03;5114452;28;20468;-69
2022/03/13 02:20:20;;;;;;;12.97;9.90;;;;;;;4.90;43.21;96557.84;5114018;28;20865;-68
2022/03/13 02:22:46;;;;;;;16.30;10.10;;;;;;;4.56;44.13;96558.72;5114163;28;20837;-69
2022/03/13 02:25:22;;;;;;;16.30;10.80;;;;;;;4.72;43.96;96550.59;5114194;28;20457;-67
2022/03/13 02:27:48;;;;;;;15.00;10.80;;;;;;;4.82;44.44;96545.84;5114550;28;20539;-68
2022/03/13 02:30:13;;;;;;;19.60;11.20;;;;;;;4.64;45.28;96552.56;5114196;28;20895;-68
2022/03/13 02:32:39;;;;;;;16.27;10.90;;;;;;;4.41;45.31;96543.28;5114273;28;20490;-68
2022/03/13 02:35:05;;;;;;;15.60;11.07;;;;;;;4.28;45.70;96545.03;5114028;28;20445;-69
2022/03/13 02:37:39;;;;;;;16.37;11.57;;;;;;;4.22;46.61;96549.22;5113967;28;20901;-69
2022/03/13 02:40:06;;;;;;;19.40;12.23;;;;;;;4.19;47.75;96552.16;5113674;28;20411;-68
2022/03/13 02:42:32;;;;;;;20.17;13.32;;;;;;;4.41;47.69;96543.28;5113749;28;20407;-68
2022/03/13 02:44:57;;;;;;;18.43;12.30;;;;;;;4.43;47.75;96545.69;5114003;28;20865;-68
2022/03/13 02:47:23;;;;;;;18.57;12.77;;;;;;;4.42;48.19;96537.13;5095708;28;20475;-68
2022/03/13 02:49:48;;;;;;;19.42;13.25;;;;;;;4.45;48.23;96541.94;5113701;28;20484;-68
2022/03/13 02:52:13;;;;;;;18.87;13.47;;;;;;;4.38;48.41;96548.88;5113554;28;20380;-68
2022/03/13 02:54:39;;;;;;;18.97;13.37;;;;;;;4.03;49.32;96544.72;5113789;28;20380;-69
2022/03/13 02:57:04;;;;;;;19.73;13.13;;;;;;;3.93;50.06;96544.25;5113596;28;20372;-69
2022/03/13 02:59:30;;;;;;;19.00;13.63;;;;;;;3.81;50.04;96541.38;5113070;28;20461;-69
2022/03/13 03:01:55;;;;;;;19.80;14.20;;;;;;;3.94;49.57;96541.47;5113171;28;20380;-68
2022/03/13 03:04:23;;;;;;;20.63;14.33;;;;;;;4.07;49.80;96538.13;5113535;28;20404;-68
2022/03/13 03:06:59;;;;;;;19.27;13.70;;;;;;;3.88;50.01;96537.06;5113517;28;20368;-68
2022/03/13 03:09:26;;;;;;;22.38;13.65;;;;;;;3.77;50.60;96542.78;5113526;28;20392;-69
2022/03/13 03:11:51;;;;;;;22.02;13.60;;;;;;;3.98;50.64;96547.88;5113129;28;20384;-69
2022/03/13 03:14:17;;;;;;;21.60;13.90;;;;;;;3.99;50.23;96543.50;5113473;28;20830;-69
2022/03/13 03:16:44;;;;;;;21.98;14.18;;;;;;;3.75;51.23;96542.94;5113366;28;20932;-69
2022/03/13 03:19:10;;;;;;;19.17;13.98;;;;;;;3.63;51.54;96547.06;5112278;28;20435;-69
2022/03/13 03:21:38;;;;;;;21.33;14.63;;;;;;;3.54;51.19;96544.78;5113488;28;20426;-68
2022/03/13 03:24:10;;;;;;;20.73;14.30;;;;;;;3.72;51.80;96539.94;5113291;28;20746;-69
2022/03/13 03:26:37;;;;;;;22.52;15.18;;;;;;;3.63;52.24;96546.25;5112971;28;20372;-69
2022/03/13 03:29:04;;;;;;;21.67;14.40;;;;;;;3.62;52.13;96549.84;5112779;28;20432;-69
2022/03/13 03:31:29;;;;;;;22.08;15.25;;;;;;;3.44;52.70;96547.72;5112765;28;20384;-69
2022/03/13 03:33:55;;;;;;;22.45;14.75;;;;;;;3.62;52.36;96550.63;5113323;28;20725;-69
2022/03/13 03:36:20;;;;;;;20.05;14.32;;;;;;;3.57;52.08;96547.81;5113195;28;20374;-69
2022/03/13 03:38:46;;;;;;;21.27;15.10;;;;;;;3.64;52.13;96560.81;5112851;28;20376;-69
2022/03/13 03:41:12;;;;;;;20.42;14.57;;;;;;;3.70;51.64;96558.28;5112871;28;20459;-69
2022/03/13 03:43:37;;;;;;;19.52;13.80;;;;;;;3.64;51.63;96559.03;5094692;28;20388;-69
2022/03/13 03:46:03;;;;;;;20.60;13.90;;;;;;;3.78;50.72;96554.75;5112708;28;20360;-70
2022/03/13 03:48:28;;;;;;;21.70;13.77;;;;;;;3.92;50.41;96553.03;5112449;28;20391;-69
2022/03/13 03:50:54;;;;;;;22.45;13.98;;;;;;;3.93;50.83;96547.66;5112832;28;20365;-69
2022/03/13 03:53:19;;;;;;;20.00;14.03;;;;;;;3.60;52.13;96550.03;5112811;28;20373;-69
2022/03/13 03:55:44;;;;;;;18.87;13.73;;;;;;;3.41;52.18;96549.88;5112733;28;20849;-69
2022/03/13 03:58:10;;;;;;;21.73;14.47;;;;;;;3.16;52.98;96539.94;5112404;28;20445;-68
2022/03/13 04:00:35;;;;;;;20.60;14.67;;;;;;;3.15;53.09;96553.03;5112269;28;20372;-70
2022/03/13 04:03:01;;;;;;;21.58;14.20;;;;;;;3.22;53.57;96544.34;5111750;28;20990;-69
2022/03/13 04:05:26;;;;;;;22.63;14.32;;;;;;;3.49;53.43;96540.19;5112382;28;20403;-70
2022/03/13 04:07:52;;;;;;;21.97;14.27;;;;;;;3.45;53.10;96532.97;5112051;28;20741;-69
2022/03/13 04:10:17;;;;;;;23.03;14.97;;;;;;;3.66;53.06;96538.13;5112030;28;20508;-69
2022/03/13 04:12:42;;;;;;;21.77;14.80;;;;;;;3.39;52.50;96542.31;5112465;28;20380;-70
2022/03/13 04:15:08;;;;;;;24.10;15.23;;;;;;;3.58;52.85;96541.63;5112158;28;20812;-69
2022/03/13 04:17:35;;;;;;;23.27;15.20;;;;;;;3.23;54.00;96538.16;5112087;28;20388;-69
2022/03/13 04:20:00;;;;;;;21.85;14.77;;;;;;;3.34;53.43;96532.47;5112284;28;20383;-70
2022/03/13 04:22:27;;;;;;;20.75;13.95;;;;;;;3.31;53.50;96539.84;5094009;28;20418;-70
2022/03/13 04:24:53;;;;;;;21.40;13.65;;;;;;;3.24;53.07;96529.41;5112138;28;20741;-69
2022/03/13 04:27:18;;;;;;;19.47;13.40;;;;;;;3.54;52.72;96544.78;5112340;28;20368;-69
2022/03/13 04:29:43;;;;;;;20.07;12.63;;;;;;;3.62;52.55;96532.50;5112382;28;20472;-69
2022/03/13 04:32:10;;;;;;;17.70;12.27;;;;;;;3.72;51.43;96543.34;5112291;28;20459;-69
2022/03/13 04:34:36;;;;;;;21.55;13.50;;;;;;;4.02;50.79;96545.69;5093905;28;20396;-69
2022/03/13 04:37:02;;;;;;;19.30;13.17;;;;;;;3.85;52.24;96542.59;5111976;28;20468;-70
2022/03/13 04:39:33;;;;;;;19.80;13.35;;;;;;;3.93;51.82;96533.88;5111354;28;20481;-69
2022/03/13 04:41:59;;;;;;;20.73;14.40;;;;;;;3.82;52.60;96527.44;5112083;28;20421;-69
2022/03/13 04:44:24;;;;;;;19.88;13.95;;;;;;;3.67;52.28;96526.75;5093610;28;20412;-69
2022/03/13 04:46:49;;;;;;;19.30;12.87;;;;;;;3.82;52.22;96530.03;5112374;28;20380;-69
2022/03/13 04:49:15;;;;;;;20.57;13.57;;;;;;;3.82;51.77;96529.22;5112308;28;20375;-69
2022/03/13 04:51:40;;;;;;;19.73;13.23;;;;;;;3.67;51.94;96524.97;5111505;28;20410;-69
2022/03/13 04:54:08;;;;;;;21.57;12.90;;;;;;;3.81;52.72;96538.81;5112267;28;20717;-69
2022/03/13 04:56:33;;;;;;;17.20;11.70;;;;;;;3.62;52.85;96531.72;5112082;28;20713;-69
2022/03/13 04:59:00;;;;;;;18.25;13.00;;;;;;;3.57;53.75;96536.63;5093677;28;20387;-70
2022/03/13 05:01:26;;;;;;;19.17;12.87;;;;;;;3.66;52.48;96538.91;5111152;28;20422;-70
2022/03/13 05:03:51;;;;;;;17.70;12.70;;;;;;;3.92;52.65;96543.47;5111278;28;20832;-69
2022/03/13 05:06:17;;;;;;;19.37;12.90;;;;;;;3.62;53.02;96548.03;5093424;28;20392;-68
2022/03/13 05:08:42;;;;;;;18.27;12.90;;;;;;;3.41;54.22;96536.91;5111696;28;20380;-68
2022/03/13 05:11:07;;;;;;;20.90;13.57;;;;;;;3.41;54.27;96544.69;5111775;28;20385;-68
2022/03/13 05:13:36;;;;;;;17.00;12.80;;;;;;;3.57;54.00;96542.63;5093563;28;20948;-68
2022/03/13 05:16:02;;;;;;;17.50;12.65;;;;;;;3.62;53.66;96542.09;5111599;28;20407;-67
2022/03/13 05:18:29;;;;;;;19.08;13.35;;;;;;;3.59;54.41;96552.81;5111650;28;20861;-68
2022/03/13 05:20:54;;;;;;;20.75;13.27;;;;;;;3.81;53.56;96548.38;5111695;28;20459;-68
2022/03/13 05:23:20;;;;;;;20.88;13.50;;;;;;;3.63;54.66;96556.59;5111811;28;20471;-67
2022/03/13 05:25:46;;;;;;;18.10;13.07;;;;;;;3.72;54.27;96551.13;5111420;28;20427;-69
2022/03/13 05:28:11;;;;;;;18.45;13.65;;;;;;;3.72;54.91;96545.94;5111695;28;20522;-68
2022/03/13 05:30:39;;;;;;;19.03;13.27;;;;;;;3.78;54.87;96552.16;5093395;28;20446;-67
2022/03/13 05:33:05;;;;;;;20.15;13.32;;;;;;;3.72;56.02;96558.09;5111647;28;20383;-68
2022/03/13 05:35:31;;;;;;;20.55;13.60;;;;;;;3.69;55.98;96553.28;5111593;28;20420;-71
2022/03/13 05:37:57;;;;;;;20.00;14.20;;;;;;;3.66;55.88;96556.25;5111967;28;20376;-68
2022/03/13 05:40:23;;;;;;;20.57;13.47;;;;;;;3.81;55.83;96558.72;5111400;28;20457;-68
2022/03/13 05:42:55;;;;;;;19.63;13.50;;;;;;;3.69;55.21;96558.44;5114077;28;20503;-68
2022/03/13 05:45:22;;;;;;;21.10;13.30;;;;;;;3.81;55.75;96561.31;5115264;28;20740;-68
2022/03/13 05:47:50;;;;;;;18.58;12.93;;;;;;;4.03;55.20;96563.66;5115041;28;20780;-68
2022/03/13 05:50:16;;;;;;;20.77;13.57;;;;;;;3.95;55.16;96563.03;5115022;28;20368;-67
2022/03/13 05:52:43;;;;;;;19.30;13.07;;;;;;;3.92;54.65;96571.97;5115062;28;20376;-68
2022/03/13 05:55:10;;;;;;;19.15;13.07;;;;;;;4.08;54.54;96576.84;5115285;28;20475;-68
2022/03/13 05:57:35;;;;;;;21.25;12.90;;;;;;;4.35;53.04;96571.78;5115400;28;20376;-68
2022/03/13 06:00:05;;;;;;;16.08;11.73;;;;;;;4.31;52.72;96576.56;5114688;28;20388;-68
2022/03/13 06:02:31;;;;;;;18.88;12.73;;;;;;;4.33;52.79;96572.00;5095567;28;20425;-69
2022/03/13 06:04:57;;;;;;;19.27;13.23;;;;;;;4.50;52.27;96572.47;5114707;28;20400;-68
2022/03/13 06:07:22;;;;;;;19.67;13.35;;;;;;;4.66;52.64;96569.53;5114728;28;20388;-68
2022/03/13 06:09:48;;;;;;;23.87;14.33;;;;;;;4.76;53.16;96579.56;5114787;28;20418;-68
2022/03/13 06:12:15;;;;;;;20.08;13.63;;;;;;;4.72;53.77;96576.56;5114615;28;20377;-67
2022/03/13 06:14:40;;;;;;;20.60;13.82;;;;;;;4.97;53.91;96577.63;5114556;28;20424;-68
2022/03/13 06:17:05;;;;;;;21.40;14.43;;;;;;;5.06;53.50;96582.66;5096161;28;20471;-69
2022/03/13 06:19:32;;;;;;;24.27;14.30;;;;;;;4.94;54.51;96587.59;5114528;28;20384;-68
2022/03/13 06:21:57;;;;;;;20.73;13.95;;;;;;;4.82;54.29;96589.16;5096135;28;20379;-68
2022/03/13 06:24:23;;;;;;;22.10;14.03;;;;;;;4.96;53.94;96590.78;5114432;28;20404;-68
2022/03/13 06:26:48;;;;;;;22.88;14.45;;;;;;;5.12;53.96;96589.66;5114775;28;20388;-68
2022/03/13 06:29:14;;;;;;;23.57;15.43;;;;;;;5.18;53.21;96599.25;5095984;28;20490;-68
2022/03/13 06:31:40;;;;;;;23.27;15.13;;;;;;;4.82;53.51;96607.34;5114321;28;20841;-69
2022/03/13 06:34:07;;;;;;;23.83;16.00;;;;;;;4.24;55.14;96601.69;5096587;28;20391;-69
2022/03/13 06:36:34;;;;;;;23.55;16.48;;;;;;;4.20;55.91;96608.25;5114269;28;20381;-69
2022/03/13 06:38:59;;;;;;;21.80;16.25;;;;;;;4.35;56.29;96615.91;5113652;28;20741;-69
2022/03/13 06:41:24;;;;;;;21.90;16.40;;;;;;;4.22;56.63;96616.66;5113843;28;20385;-70
2022/03/13 06:43:50;;;;;;;23.63;16.67;;;;;;;4.80;55.91;96609.31;5114088;28;20450;-70
2022/03/13 06:46:15;;;;;;;22.13;16.35;;;;;;;4.96;54.93;96614.97;5114049;28;20381;-71
2022/03/13 06:48:41;;;;;;;22.07;15.30;;;;;;;5.01;54.58;96615.19;5113932;28;20783;-70
2022/03/13 06:51:07;;;;;;;22.27;14.95;;;;;;;5.11;54.17;96627.81;5113819;28;20736;-69
2022/03/13 06:53:35;;;;;;;22.50;15.10;;;;;;;5.01;53.97;96627.38;5112732;28;20372;-70
2022/03/13 06:56:01;;;;;;;20.20;13.60;;;;;;;5.15;52.97;96623.81;5095339;28;20395;-70
2022/03/13 06:58:26;;;;;;;17.67;13.13;;;;;;;4.92;52.24;96626.75;5113563;28;20441;-70
2022/03/13 07:00:52;;;;;;;18.33;12.93;;;;;;;5.18;51.03;96633.03;5113255;28;20383;-69
2022/03/13 07:03:17;;;;;;;16.45;11.70;;;;;;;5.02;50.45;96634.16;5113206;28;20376;-68
2022/03/13 07:05:43;;;;;;;17.67;12.63;;;;;;;5.12;49.69;96639.00;5113196;28;20410;-69
2022/03/13 07:08:08;;;;;;;16.30;11.80;;;;;;;5.29;49.68;96637.66;5113408;28;20767;-68
2022/03/13 07:10:34;;;;;;;16.90;12.05;;;;;;;5.29;48.97;96640.25;5113429;28;20391;-68
2022/03/13 07:12:59;;;;;;;17.60;11.93;;;;;;;5.30;48.83;96641.81;5113304;28;20376;-68
2022/03/13 07:15:27;;;;;;;15.27;11.53;;;;;;;5.58;47.95;96645.06;5113441;28;20494;-68
2022/03/13 07:17:53;;;;;;;16.02;11.30;;;;;;;5.52;48.14;96637.28;5113407;28;20402;-68
2022/03/13 07:20:19;;;;;;;19.40;12.02;;;;;;;5.53;48.57;96638.88;5112852;28;20384;-69
2022/03/13 07:22:45;;;;;;;15.95;11.55;;;;;;;5.57;48.31;96647.91;5113330;28;20381;-68
2022/03/13 07:25:11;;;;;;;16.75;11.13;;;;;;;5.48;48.38;96641.25;5094406;28;20407;-66
2022/03/13 07:27:37;;;;;;;14.73;11.93;;;;;;;5.72;47.65;96648.50;5113299;28;20388;-66
2022/03/13 07:30:04;;;;;;;16.27;11.45;;;;;;;5.80;47.58;96646.50;5112699;28;20383;-66
2022/03/13 07:32:29;;;;;;;14.35;10.90;;;;;;;5.97;47.01;96643.53;5113024;28;20686;-69
2022/03/13 07:34:55;;;;;;;15.27;11.47;;;;;;;5.60;46.91;96643.09;5112566;28;20384;-67
2022/03/13 07:37:20;;;;;;;13.97;10.40;;;;;;;5.55;47.62;96645.47;5112760;28;20381;-66
2022/03/13 07:39:47;;;;;;;18.13;12.18;;;;;;;5.63;47.49;96644.50;5112705;28;20400;-65
2022/03/13 07:42:14;;;;;;;14.82;11.35;;;;;;;5.96;47.01;96647.13;5094869;28;20392;-66
2022/03/13 07:44:39;;;;;;;17.52;11.80;;;;;;;5.98;47.12;96642.53;5112678;28;20459;-66
2022/03/13 07:47:05;;;;;;;15.67;11.60;;;;;;;6.18;46.83;96641.53;5112716;28;20380;-67
2022/03/13 07:49:30;;;;;;;16.10;12.00;;;;;;;6.40;46.16;96641.28;5112396;28;20442;-66
2022/03/13 07:51:56;;;;;;;16.37;12.20;;;;;;;6.37;46.89;96644.28;5112605;28;20463;-65
2022/03/13 07:54:21;;;;;;;17.97;12.00;;;;;;;6.45;46.25;96642.28;5112848;28;20770;-65
2022/03/13 07:56:47;;;;;;;16.00;12.27;;;;;;;6.51;46.36;96638.84;5112197;28;20841;-66
2022/03/13 07:59:12;;;;;;;18.20;12.32;;;;;;;6.46;46.56;96637.88;5111990;28;20383;-65
2022/03/13 08:01:38;;;;;;;16.00;11.67;;;;;;;6.67;46.15;96643.63;5111567;28;20369;-65
2022/03/13 08:04:06;;;;;;;16.97;12.43;;;;;;;6.77;46.32;96648.38;5111872;28;20483;-66
2022/03/13 08:06:34;;;;;;;14.30;10.90;;;;;;;7.59;48.32;96647.56;5112098;28;20385;-68
2022/03/13 08:09:01;;;;;;;14.90;12.30;;;;;;;7.91;46.69;96650.97;5112384;28;20392;-70
2022/03/13 08:11:27;;;;;;;16.63;12.48;;;;;;;7.89;45.16;96643.34;5112533;28;20372;-66
2022/03/13 08:13:53;;;;;;;17.53;13.00;;;;;;;7.90;45.42;96650.16;5112344;28;20860;-65
2022/03/13 08:16:18;;;;;;;18.80;13.13;;;;;;;7.64;45.95;96647.72;5094479;28;20841;-66
2022/03/13 08:18:44;;;;;;;18.58;13.48;;;;;;;7.84;46.10;96645.00;5111832;28;20377;-66
2022/03/13 08:21:09;;;;;;;18.65;13.23;;;;;;;7.98;46.06;96649.06;5111879;28;20419;-66
2022/03/13 08:23:35;;;;;;;18.97;13.30;;;;;;;7.70;47.06;96646.88;5112062;28;20457;-66
2022/03/13 08:26:00;;;;;;;20.92;13.75;;;;;;;7.98;47.55;96650.88;5112232;28;20388;-67
2022/03/13 08:28:25;;;;;;;16.93;12.93;;;;;;;7.80;47.63;96652.41;5111963;28;20459;-67
2022/03/13 08:30:51;;;;;;;17.77;13.88;;;;;;;8.07;47.33;96650.44;5093825;28;20737;-67
2022/03/13 08:33:16;;;;;;;19.73;13.57;;;;;;;8.37;45.84;96645.34;5093880;28;20377;-69
2022/03/13 08:35:42;;;;;;;20.07;14.40;;;;;;;8.19;46.13;96647.91;5093934;28;20399;-66
2022/03/13 08:38:07;;;;;;;18.30;13.80;;;;;;;8.21;45.58;96651.09;5112252;28;20686;-66
2022/03/13 08:40:33;;;;;;;19.60;13.00;;;;;;;8.21;44.66;96651.91;5093219;28;20400;-67
2022/03/13 08:42:58;;;;;;;19.90;13.57;;;;;;;8.42;44.56;96652.53;5112025;28;20373;-68
2022/03/13 08:45:24;;;;;;;18.25;13.60;;;;;;;8.69;44.05;96652.03;5093818;28;20433;-68
2022/03/13 08:47:49;;;;;;;18.98;14.25;;;;;;;8.99;43.81;96648.69;5112014;28;21169;-68
2022/03/13 08:50:16;;;;;;;17.67;14.07;;;;;;;8.67;45.13;96654.09;5111669;28;20398;-69
2022/03/13 08:52:42;;;;;;;19.63;14.00;;;;;;;8.87;45.45;96651.25;5112197;28;20411;-68
2022/03/13 08:55:13;;;;;;;19.77;14.30;;;;;;;9.10;45.35;96647.97;5112369;28;20395;-67
2022/03/13 08:57:41;;;;;;;20.20;14.73;;;;;;;9.40;45.33;96647.97;5111974;28;20429;-66
2022/03/13 09:00:08;;;;;;;19.85;14.68;;;;;;;9.51;45.01;96649.84;5103932;28;20472;-68
2022/03/13 09:02:34;;;;;;;19.40;13.20;;;;;;;9.12;46.27;96649.34;5098285;28;20272;-65
2022/03/13 09:04:59;;;;;;;19.17;15.17;;;;;;;9.32;46.26;96651.69;5110874;28;20479;-66
2022/03/13 09:07:25;;;;;;;20.90;15.00;;;;;;;9.35;46.12;96637.38;5111873;28;20529;-66
2022/03/13 09:09:50;;;;;;;22.05;14.77;;;;;;;9.49;45.84;96636.97;5111520;28;20396;-66
2022/03/13 09:12:16;;;;;;;18.83;14.37;;;;;;;9.67;45.67;96632.69;5111948;28;20846;-66
2022/03/13 09:14:41;;;;;;;21.30;14.82;;;;;;;9.57;45.53;96631.44;5112019;28;20495;-68
2022/03/13 09:17:08;;;;;;;19.67;14.90;;;;;;;9.77;44.98;96635.56;5094835;28;20387;-67
2022/03/13 09:19:34;;;;;;;18.90;13.85;;;;;;;9.56;45.69;96639.50;5115708;28;20466;-66
2022/03/13 09:21:59;;;;;;;21.38;14.50;;;;;;;9.80;45.11;96638.53;5115841;28;20372;-67
2022/03/13 09:24:25;;;;;;;20.20;12.40;;;;;;;9.60;44.50;96635.41;5098751;28;20233;-67
2022/03/13 09:26:50;;;;;;;18.80;13.00;;;;;;;9.63;45.49;96636.78;5116939;28;20266;-67
2022/03/13 09:29:16;;;;;;;19.00;13.57;;;;;;;9.78;46.08;96630.09;5098110;28;20526;-66
2022/03/13 09:31:41;;;;;;;21.10;12.97;;;;;;;9.80;45.49;96635.13;5116476;28;20180;-68
2022/03/13 09:34:07;;;;;;;19.00;12.53;;;;;;;9.73;45.62;96634.41;5116601;28;20234;-66
2022/03/13 09:36:36;;;;;;;21.97;12.93;;;;;;;9.90;44.88;96628.31;5116648;28;20547;-66
2022/03/13 09:39:03;;;;;;;21.50;13.37;;;;;;;9.80;45.94;96629.88;5116218;28;20540;-71
2022/03/13 09:41:28;;;;;;;20.30;12.73;;;;;;;9.93;45.62;96632.28;5098327;28;20624;-65
2022/03/13 09:43:53;;;;;;;18.13;12.60;;;;;;;9.99;45.43;96628.75;5116117;28;20229;-68
2022/03/13 09:46:19;;;;;;;20.53;13.10;;;;;;;9.89;45.34;96631.94;5116146;28;20545;-67
2022/03/13 09:48:45;;;;;;;21.37;13.10;;;;;;;9.82;45.71;96636.47;5098052;28;20172;-66
2022/03/13 09:51:11;;;;;;;17.80;12.63;;;;;;;9.85;45.01;96630.00;5116230;28;20172;-66
2022/03/13 09:53:37;;;;;;;19.03;12.10;;;;;;;9.80;45.24;96632.50;5116320;28;20187;-67
2022/03/13 09:56:05;;;;;;;18.23;12.37;;;;;;;10.04;44.49;96626.25;5115997;28;20187;-67
2022/03/13 09:58:31;;;;;;;17.80;12.30;;;;;;;10.11;44.20;96626.16;5116131;28;20175;-69
2022/03/13 10:00:57;;;;;;;19.60;12.70;;;;;;;10.31;43.78;96630.06;5115947;28;20252;-70
2022/03/13 10:03:23;;;;;;;20.67;12.67;;;;;;;10.29;43.70;96629.50;5115980;28;20570;-72
2022/03/13 10:05:50;;;;;;;18.47;12.33;;;;;;;10.34;43.99;96624.38;5115730;28;20200;-68
2022/03/13 10:08:17;;;;;;;19.17;12.77;;;;;;;10.51;43.90;96619.22;5115769;28;20175;-68
2022/03/13 10:10:47;;;;;;;19.43;12.97;;;;;;;10.62;43.96;96626.28;5103690;28;20286;-67
2022/03/13 10:13:32;;;;;;;18.67;12.57;;;;;;;10.72;44.06;96620.44;5095681;28;20184;-68
2022/03/13 10:15:58;;;;;;;19.70;12.70;;;;;;;10.84;43.24;96613.34;5100686;28;20172;-69
2022/03/13 10:18:25;;;;;;;21.37;12.90;;;;;;;10.80;43.67;96615.66;5095512;28;20536;-68
2022/03/13 10:20:52;;;;;;;19.47;12.03;;;;;;;10.99;43.18;96607.59;5095281;28;20245;-69
2022/03/13 10:23:19;;;;;;;18.47;12.93;;;;;;;11.15;42.38;96604.25;5095300;28;20176;-69
2022/03/13 10:25:48;;;;;;;20.93;12.77;;;;;;;11.32;42.23;96599.03;5095220;28;20300;-68
2022/03/13 10:28:22;;;;;;;23.00;12.60;;;;;;;11.12;42.13;96610.75;5094798;28;20666;-68
2022/03/13 10:31:06;;;;;;;19.27;13.13;;;;;;;11.32;41.38;96605.06;5094991;28;20176;-68
2022/03/13 10:33:44;;;;;;;19.70;12.97;;;;;;;11.19;41.21;96593.06;5095370;28;20636;-68
2022/03/13 10:36:17;;;;;;;21.87;13.23;;;;;;;11.18;41.30;96588.84;5094769;28;20172;-68
2022/03/13 10:38:45;;;;;;;19.83;13.27;;;;;;;11.45;41.00;96594.31;5076747;28;20543;-69
2022/03/13 10:41:13;;;;;;;28.57;14.20;;;;;;;11.44;40.90;96591.91;5094914;28;20165;-69
2022/03/13 10:43:57;;;;;;;21.67;13.80;;;;;;;11.45;40.60;96593.50;5095067;28;20176;-69
2022/03/13 10:46:31;;;;;;;22.50;13.37;;;;;;;11.31;40.81;96590.38;5095161;28;20180;-68
2022/03/13 10:48:59;;;;;;;18.80;12.93;;;;;;;11.50;40.78;96589.13;5095097;28;20180;-68
2022/03/13 10:51:41;;;;;;;19.67;12.73;;;;;;;11.81;40.85;96581.81;5076708;28;20249;-69
2022/03/13 10:54:07;;;;;;;20.30;12.37;;;;;;;11.67;40.49;96582.06;5076666;28;20640;-69
2022/03/13 10:56:32;;;;;;;17.90;11.57;;;;;;;11.74;39.77;96584.56;5094797;28;20267;-69
2022/03/13 10:58:59;;;;;;;20.23;12.97;;;;;;;11.58;39.77;96580.09;5094786;28;20617;-69
2022/03/13 11:01:25;;;;;;;21.87;13.63;;;;;;;11.53;39.07;96580.81;5094360;28;20738;-70
2022/03/13 11:04:06;;;;;;;21.13;13.20;;;;;;;11.52;39.09;96581.03;5094314;28;20582;-70
2022/03/13 11:06:35;;;;;;;21.37;13.37;;;;;;;11.69;38.72;96581.84;5094688;28;20180;-69
2022/03/13 11:09:01;;;;;;;19.27;13.37;;;;;;;11.74;38.70;96584.56;5076897;28;20219;-69
2022/03/13 11:11:28;;;;;;;24.20;14.60;;;;;;;11.72;38.40;96578.72;5094549;28;20184;-67
2022/03/13 11:13:59;;;;;;;22.23;14.23;;;;;;;11.73;38.60;96574.28;5076359;28;20200;-69
2022/03/13 11:16:32;;;;;;;24.57;14.57;;;;;;;11.76;38.55;96569.38;5094226;28;20177;-67
2022/03/13 11:19:05;;;;;;;25.03;13.73;;;;;;;11.97;38.60;96573.13;5094180;28;20523;-69
2022/03/13 11:21:31;;;;;;;25.83;14.63;;;;;;;11.78;39.64;96574.38;5075786;28;20202;-65